Waverly, Kentucky
Current Conditions -  °F | °C
As of 12:54 AM on Sunday 26 Oct 2014 (Local Time) from KEVV Reporting Station
Clear Clear  
Wind Chill: 53°   Ceiling: Unl
Heat Index: 53°   Visibility: 9mi
Dew Point: 51°   Wind: 5mph
Humidity: 93%   Direction: 240°WSW
Pressure: 29.99"   Gusts: NA
Location:  37.71°N, 87.81°W
Report Text: KEVV 260554Z AUTO 24004KT 9SM CLR 12/11 A2999 RMK AO2 SLP155 T01170106 10194 20117 402670111 55003
Loading
Personal Weather Stations






























Interactive Weather Map
Tropical Storm Tracking
New forecast layout! Learn more

10-Day Weather Forecast

Advertisements
Track Severe Weather on mobile